Time;durP1;ratioP1;P1;durP2;ratioP2;P2;SDS_P1;SDS_P2;PMS_P1;PMS_P2;Temp;Humidity;BMP_temperature;BMP_pressure;BME280_temperature;BME280_humidity;BME280_pressure;Samples;Min_cycle;Max_cycle;Signal;HPM_P1;HPM_P2
2023/03/30 00:01:30;;;;;;;13.18;9.05;;;11.20;99.90;;;;;;4962506;28;20043;-73
2023/03/30 00:03:57;;;;;;;11.00;8.85;;;11.30;99.90;;;;;;4961094;28;20042;-73
2023/03/30 00:06:23;;;;;;;10.32;8.70;;;11.30;99.90;;;;;;4963851;28;20082;-73
2023/03/30 00:08:52;;;;;;;9.73;8.63;;;11.40;99.90;;;;;;4953400;28;20070;-73
2023/03/30 00:11:21;;;;;;;10.43;8.40;;;11.30;99.90;;;;;;4965445;28;20117;-73
2023/03/30 00:13:49;;;;;;;9.73;8.23;;;11.30;99.90;;;;;;4973746;28;20050;-73
2023/03/30 00:16:16;;;;;;;10.63;8.38;;;11.30;99.90;;;;;;4967712;28;20043;-73
2023/03/30 00:18:44;;;;;;;10.18;8.07;;;11.30;99.90;;;;;;4964560;28;20049;-73
2023/03/30 00:21:10;;;;;;;10.45;8.23;;;11.20;99.90;;;;;;4945324;28;20034;-73
2023/03/30 00:23:37;;;;;;;10.00;7.22;;;11.20;99.90;;;;;;4965576;28;20351;-73
2023/03/30 00:26:02;;;;;;;9.88;8.13;;;11.20;99.90;;;;;;4973515;28;20449;-73
2023/03/30 00:28:31;;;;;;;12.45;8.35;;;11.10;99.90;;;;;;4961042;28;20047;-73
2023/03/30 00:30:57;;;;;;;10.63;8.10;;;11.10;99.90;;;;;;4955547;28;20055;-73
2023/03/30 00:33:23;;;;;;;11.80;8.18;;;11.10;99.90;;;;;;4954260;28;20415;-73
2023/03/30 00:35:52;;;;;;;11.75;8.25;;;11.00;99.90;;;;;;4973312;28;20478;-73
2023/03/30 00:38:20;;;;;;;9.77;7.72;;;11.00;99.90;;;;;;4952871;28;20035;-73
2023/03/30 00:40:51;;;;;;;9.88;8.15;;;11.00;99.90;;;;;;4954411;28;20027;-73
2023/03/30 00:43:17;;;;;;;11.43;8.27;;;11.00;99.90;;;;;;4965114;28;20047;-73
2023/03/30 00:45:42;;;;;;;9.48;8.00;;;10.90;99.90;;;;;;4965656;28;20042;-73
2023/03/30 00:48:29;;;;;;;9.07;7.95;;;10.90;99.90;;;;;;4969584;28;20046;-73
2023/03/30 00:51:08;;;;;;;10.20;7.93;;;10.90;99.90;;;;;;4949932;28;20049;-73
2023/03/30 00:53:37;;;;;;;12.30;8.02;;;10.90;99.90;;;;;;4965039;28;20070;-73
2023/03/30 00:56:06;;;;;;;9.52;8.02;;;10.90;99.90;;;;;;4973062;28;20085;-73
2023/03/30 00:58:33;;;;;;;10.80;8.40;;;11.00;99.90;;;;;;4961079;28;20048;-73
2023/03/30 01:01:01;;;;;;;9.55;7.88;;;11.00;99.90;;;;;;4965516;28;20097;-73
2023/03/30 01:03:31;;;;;;;8.80;7.65;;;11.00;99.90;;;;;;4972623;28;20097;-73
2023/03/30 01:05:59;;;;;;;9.32;8.32;;;10.90;99.90;;;;;;4972884;28;20053;-73
2023/03/30 01:08:31;;;;;;;12.55;8.43;;;10.90;99.90;;;;;;4961093;28;20138;-73
2023/03/30 01:11:00;;;;;;;10.85;8.35;;;11.00;99.90;;;;;;4961638;28;20043;-73
2023/03/30 01:13:31;;;;;;;9.60;8.23;;;11.00;99.90;;;;;;4972465;28;20047;-73
2023/03/30 01:16:17;;;;;;;11.00;8.18;;;11.00;99.90;;;;;;4972906;28;20178;-73
2023/03/30 01:19:06;;;;;;;8.48;7.03;;;11.00;99.90;;;;;;4942901;28;20035;-73
2023/03/30 01:21:54;;;;;;;10.23;6.55;;;11.00;99.90;;;;;;4961161;28;20050;-73
2023/03/30 01:24:47;;;;;;;8.18;6.55;;;11.10;99.90;;;;;;4963946;28;20079;-73
2023/03/30 01:27:31;;;;;;;9.05;6.63;;;11.20;99.90;;;;;;4964656;28;20461;-73
2023/03/30 01:30:27;;;;;;;9.18;5.90;;;11.30;99.90;;;;;;4953634;28;20140;-73
2023/03/30 01:33:06;;;;;;;6.63;5.15;;;11.40;99.90;;;;;;4953615;28;20050;-73
2023/03/30 01:36:16;;;;;;;9.40;6.57;;;11.50;99.90;;;;;;4952998;29;20506;-73
2023/03/30 01:39:12;;;;;;;7.78;6.15;;;11.50;99.90;;;;;;4942868;28;20051;-73
2023/03/30 01:41:44;;;;;;;8.02;5.30;;;11.60;99.90;;;;;;4954832;28;20047;-73
2023/03/30 01:44:18;;;;;;;10.50;6.03;;;11.60;99.90;;;;;;4962605;28;20042;-73
2023/03/30 01:46:49;;;;;;;8.48;5.50;;;11.60;99.90;;;;;;4957237;28;20038;-73
2023/03/30 01:49:31;;;;;;;8.25;5.65;;;11.70;99.90;;;;;;4958510;28;20560;-73
2023/03/30 01:52:04;;;;;;;6.88;5.40;;;11.80;99.90;;;;;;4948948;28;20069;-73
2023/03/30 01:54:40;;;;;;;7.78;5.40;;;11.90;99.90;;;;;;4970971;28;20070;-72
2023/03/30 01:57:20;;;;;;;7.65;4.80;;;11.90;99.90;;;;;;4951434;28;20091;-73
2023/03/30 01:59:55;;;;;;;5.70;4.30;;;11.90;99.90;;;;;;4962787;28;20098;-73
2023/03/30 02:02:23;;;;;;;6.85;4.82;;;11.90;99.90;;;;;;4958466;28;20371;-73
2023/03/30 02:04:53;;;;;;;7.38;4.75;;;12.00;99.90;;;;;;4950577;28;20046;-73
2023/03/30 02:07:24;;;;;;;5.05;4.30;;;12.00;99.90;;;;;;4947198;28;20055;-73
2023/03/30 02:09:52;;;;;;;8.13;4.60;;;12.00;99.90;;;;;;4945521;28;20046;-73
2023/03/30 02:12:20;;;;;;;6.00;4.57;;;12.10;99.90;;;;;;4958627;28;20042;-73
2023/03/30 02:14:47;;;;;;;7.70;4.90;;;12.10;99.90;;;;;;4952454;28;20044;-73
2023/03/30 02:17:23;;;;;;;8.18;4.32;;;12.10;99.90;;;;;;4950879;28;20369;-73
2023/03/30 02:19:50;;;;;;;5.72;3.92;;;12.10;99.90;;;;;;4961617;28;20041;-73
2023/03/30 02:22:17;;;;;;;6.68;4.35;;;12.10;99.90;;;;;;4958218;28;20413;-73
2023/03/30 02:24:47;;;;;;;8.32;3.92;;;12.20;99.90;;;;;;4963041;28;20030;-73
2023/03/30 02:27:13;;;;;;;6.45;4.50;;;12.20;99.90;;;;;;4958344;28;20055;-73
2023/03/30 02:29:42;;;;;;;7.00;4.28;;;12.20;99.90;;;;;;4954416;28;20442;-73
2023/03/30 02:32:15;;;;;;;7.63;4.28;;;12.20;99.90;;;;;;4962774;28;20476;-73
2023/03/30 02:35:10;;;;;;;7.03;4.30;;;12.20;99.90;;;;;;4952759;28;20039;-73
2023/03/30 02:38:14;;;;;;;6.65;3.85;;;12.30;99.90;;;;;;4961557;28;20504;-73
2023/03/30 02:40:58;;;;;;;5.25;4.00;;;12.20;99.90;;;;;;4958110;28;20419;-73
2023/03/30 02:43:44;;;;;;;6.95;4.07;;;12.10;99.90;;;;;;4962975;28;20745;-73
2023/03/30 02:46:38;;;;;;;7.28;4.53;;;12.00;99.90;;;;;;4957129;28;20048;-73
2023/03/30 02:49:40;;;;;;;7.85;4.07;;;11.90;99.90;;;;;;4954466;28;20051;-73
2023/03/30 02:52:21;;;;;;;7.38;4.03;;;11.80;99.90;;;;;;4959262;28;20047;-73
2023/03/30 02:54:57;;;;;;;5.70;3.85;;;11.90;99.90;;;;;;4932862;29;20047;-73
2023/03/30 02:57:35;;;;;;;9.27;4.20;;;11.80;99.90;;;;;;4954298;28;20058;-73
2023/03/30 03:00:16;;;;;;;8.73;4.50;;;11.80;99.90;;;;;;4968031;28;20031;-73
2023/03/30 03:02:48;;;;;;;8.43;3.88;;;11.80;99.90;;;;;;4962291;28;20174;-73
2023/03/30 03:05:15;;;;;;;6.55;4.40;;;11.80;99.90;;;;;;4971358;28;20086;-73
2023/03/30 03:07:41;;;;;;;6.80;4.20;;;11.70;99.90;;;;;;4954647;28;20038;-73
2023/03/30 03:10:07;;;;;;;6.70;3.88;;;11.80;99.90;;;;;;4961471;28;20382;-73
2023/03/30 03:12:34;;;;;;;7.82;4.07;;;11.80;99.90;;;;;;4935720;28;20064;-73
2023/03/30 03:15:03;;;;;;;6.57;3.72;;;11.90;99.90;;;;;;4971061;28;20050;-73
2023/03/30 03:17:33;;;;;;;7.78;3.80;;;11.90;99.90;;;;;;4956620;28;20051;-73
2023/03/30 03:20:09;;;;;;;5.53;3.78;;;11.90;99.90;;;;;;4954486;28;20057;-73
2023/03/30 03:22:34;;;;;;;6.18;3.83;;;11.90;99.90;;;;;;4958834;28;20424;-73
2023/03/30 03:25:01;;;;;;;8.57;3.70;;;11.90;99.90;;;;;;4969990;28;20050;-73
2023/03/30 03:27:27;;;;;;;5.97;3.83;;;12.00;99.90;;;;;;4957120;28;20054;-73
2023/03/30 03:29:52;;;;;;;7.95;3.72;;;12.10;99.90;;;;;;4965668;28;20039;-73
2023/03/30 03:32:18;;;;;;;6.20;3.55;;;12.10;99.90;;;;;;4963490;28;20042;-73
2023/03/30 03:34:44;;;;;;;8.25;3.78;;;12.20;99.90;;;;;;4957536;28;20086;-73
2023/03/30 03:37:11;;;;;;;6.10;3.10;;;12.20;99.90;;;;;;4968566;28;20047;-73
2023/03/30 03:39:37;;;;;;;8.18;3.75;;;12.30;99.90;;;;;;4966317;28;20121;-73
2023/03/30 03:42:06;;;;;;;7.05;3.63;;;12.30;99.90;;;;;;4939218;28;20075;-73
2023/03/30 03:44:32;;;;;;;6.40;3.60;;;12.40;99.90;;;;;;4966994;28;20138;-73
2023/03/30 03:46:57;;;;;;;6.05;3.58;;;12.40;99.90;;;;;;4966663;28;20569;-73
2023/03/30 03:49:23;;;;;;;6.93;3.30;;;12.40;99.90;;;;;;4966515;28;20498;-73
2023/03/30 03:51:49;;;;;;;8.52;3.75;;;12.40;99.90;;;;;;4943489;28;20059;-73
2023/03/30 03:54:15;;;;;;;5.97;3.60;;;12.40;99.90;;;;;;4919733;29;20047;-73
2023/03/30 03:56:41;;;;;;;10.00;4.25;;;12.40;99.90;;;;;;4946404;28;20054;-73
2023/03/30 03:59:06;;;;;;;6.90;3.53;;;12.30;99.90;;;;;;4973932;28;20439;-73
2023/03/30 04:01:32;;;;;;;6.55;3.53;;;12.30;99.90;;;;;;4967937;28;20692;-73
2023/03/30 04:03:57;;;;;;;8.07;3.63;;;12.30;99.90;;;;;;4957367;28;20048;-73
2023/03/30 04:06:23;;;;;;;4.80;3.67;;;12.30;99.90;;;;;;4955767;28;20043;-73
2023/03/30 04:08:49;;;;;;;7.25;3.35;;;12.20;99.90;;;;;;4970095;28;20052;-73
2023/03/30 04:11:14;;;;;;;8.30;3.80;;;12.10;99.90;;;;;;4958440;28;20051;-73
2023/03/30 04:13:40;;;;;;;7.97;3.97;;;12.00;99.90;;;;;;4953237;28;20077;-73
2023/03/30 04:16:06;;;;;;;7.18;4.22;;;11.90;99.90;;;;;;4956026;28;20414;-73
2023/03/30 04:18:33;;;;;;;7.38;3.83;;;11.80;99.90;;;;;;4940480;29;20043;-73
2023/03/30 04:21:04;;;;;;;6.63;3.80;;;11.70;99.90;;;;;;4954213;29;20370;-73
2023/03/30 04:23:34;;;;;;;6.05;3.90;;;11.60;99.90;;;;;;4953572;29;20047;-73
2023/03/30 04:26:00;;;;;;;5.80;3.72;;;11.60;99.90;;;;;;4945516;28;20058;-73
2023/03/30 04:28:31;;;;;;;6.43;4.28;;;11.60;99.90;;;;;;4968130;28;20051;-73
2023/03/30 04:31:09;;;;;;;8.05;4.30;;;11.60;99.90;;;;;;4973372;28;20070;-73
2023/03/30 04:33:36;;;;;;;7.30;3.80;;;11.60;99.90;;;;;;4971570;28;20047;-73
2023/03/30 04:36:03;;;;;;;9.50;4.10;;;11.50;99.90;;;;;;4951543;28;20125;-73
2023/03/30 04:38:29;;;;;;;5.97;3.45;;;11.50;99.90;;;;;;4960872;28;20113;-73
2023/03/30 04:40:55;;;;;;;7.50;3.67;;;11.60;99.90;;;;;;4964270;28;20083;-73
2023/03/30 04:43:22;;;;;;;8.20;3.83;;;11.60;99.90;;;;;;4971068;28;20046;-73
2023/03/30 04:45:50;;;;;;;7.47;3.60;;;11.70;99.90;;;;;;4956693;28;20410;-73
2023/03/30 04:48:16;;;;;;;8.38;3.97;;;11.70;99.90;;;;;;4961641;28;20057;-73
2023/03/30 04:50:43;;;;;;;5.90;3.80;;;11.70;99.90;;;;;;4972541;28;20429;-73
2023/03/30 04:53:09;;;;;;;7.13;3.53;;;11.70;99.90;;;;;;4973978;28;20047;-73
2023/03/30 04:55:35;;;;;;;6.55;3.20;;;11.70;99.90;;;;;;4962225;28;20045;-73
2023/03/30 04:58:01;;;;;;;6.18;3.60;;;11.70;99.90;;;;;;4952941;28;20049;-74
2023/03/30 05:00:27;;;;;;;7.38;3.88;;;11.70;99.90;;;;;;4964799;28;20043;-73
2023/03/30 05:02:53;;;;;;;5.90;3.40;;;11.70;99.90;;;;;;4964339;28;20132;-73
2023/03/30 05:05:19;;;;;;;7.32;3.63;;;11.80;99.90;;;;;;4935629;28;20050;-73
2023/03/30 05:07:45;;;;;;;6.95;3.83;;;11.80;99.90;;;;;;4974133;28;20042;-74
2023/03/30 05:10:11;;;;;;;7.93;3.50;;;11.80;99.90;;;;;;4972956;28;20129;-73
2023/03/30 05:12:36;;;;;;;7.05;3.10;;;11.80;99.90;;;;;;4957630;28;20135;-74
2023/03/30 05:15:02;;;;;;;6.45;3.30;;;11.80;99.90;;;;;;4945129;28;20075;-76
2023/03/30 05:17:32;;;;;;;6.95;3.10;;;11.90;99.90;;;;;;4942521;28;20118;-74
2023/03/30 05:19:58;;;;;;;5.90;3.22;;;11.90;99.90;;;;;;4953565;28;20030;-74
2023/03/30 05:22:24;;;;;;;6.30;2.78;;;12.10;99.90;;;;;;4963516;28;20501;-75
2023/03/30 05:24:51;;;;;;;5.82;2.80;;;12.00;99.90;;;;;;4943315;28;20039;-74
2023/03/30 05:27:17;;;;;;;6.03;3.22;;;12.10;99.90;;;;;;4944484;28;20054;-74
2023/03/30 05:29:42;;;;;;;5.80;2.95;;;12.10;99.90;;;;;;4946063;28;20082;-74
2023/03/30 05:32:08;;;;;;;5.05;2.55;;;12.00;99.90;;;;;;4957900;28;20074;-74
2023/03/30 05:34:34;;;;;;;4.68;2.80;;;12.10;99.90;;;;;;4956413;28;20073;-75
2023/03/30 05:37:00;;;;;;;5.70;2.83;;;12.00;99.90;;;;;;4958515;28;20054;-73
2023/03/30 05:39:26;;;;;;;5.63;2.70;;;12.10;99.90;;;;;;4961223;28;21313;-74
2023/03/30 05:41:52;;;;;;;5.35;2.88;;;12.10;99.90;;;;;;4964004;28;20257;-74
2023/03/30 05:44:17;;;;;;;5.90;3.33;;;12.10;99.90;;;;;;4947056;28;20040;-73
2023/03/30 05:46:43;;;;;;;7.18;3.28;;;12.20;99.90;;;;;;4963513;28;20045;-74
2023/03/30 05:49:09;;;;;;;8.90;3.53;;;12.10;99.90;;;;;;4972036;28;20043;-74
2023/03/30 05:51:34;;;;;;;7.07;3.45;;;12.20;99.90;;;;;;4972038;28;20053;-74
2023/03/30 05:54:01;;;;;;;6.00;3.85;;;12.30;99.90;;;;;;4972068;28;20097;-73
2023/03/30 05:56:26;;;;;;;6.85;3.92;;;12.30;99.90;;;;;;4971813;28;20177;-74
2023/03/30 05:58:52;;;;;;;7.25;4.00;;;12.30;99.90;;;;;;4972000;28;20544;-74
2023/03/30 06:01:19;;;;;;;5.63;4.03;;;12.30;99.90;;;;;;4938858;28;20041;-74
2023/03/30 06:03:45;;;;;;;5.10;3.38;;;12.40;99.90;;;;;;4934082;29;20397;-74
2023/03/30 06:06:11;;;;;;;6.80;3.72;;;12.40;99.90;;;;;;4944735;28;20050;-75
2023/03/30 06:08:37;;;;;;;7.28;3.10;;;12.40;99.90;;;;;;4948062;28;20075;-73
2023/03/30 06:11:03;;;;;;;5.03;3.00;;;12.40;99.90;;;;;;4944072;28;20048;-75
2023/03/30 06:13:29;;;;;;;8.85;3.33;;;12.40;99.90;;;;;;4950038;28;20040;-74
2023/03/30 06:15:55;;;;;;;7.13;3.15;;;12.40;99.90;;;;;;4962753;28;20425;-73
2023/03/30 06:18:21;;;;;;;10.10;3.00;;;12.40;99.90;;;;;;4936756;28;20035;-73
2023/03/30 06:20:47;;;;;;;7.13;2.80;;;12.40;99.90;;;;;;4963313;28;20069;-73
2023/03/30 06:23:13;;;;;;;8.63;2.50;;;12.40;99.90;;;;;;4971499;28;20093;-73
2023/03/30 06:25:40;;;;;;;6.78;2.60;;;12.40;99.90;;;;;;4971723;28;20118;-73
2023/03/30 06:28:06;;;;;;;7.22;2.70;;;12.40;99.90;;;;;;4971888;28;20437;-73
2023/03/30 06:30:32;;;;;;;8.27;2.92;;;12.40;99.90;;;;;;4971460;28;20501;-73
2023/03/30 06:32:57;;;;;;;7.78;2.60;;;12.40;99.90;;;;;;4962643;28;20042;-73
2023/03/30 06:35:23;;;;;;;8.10;2.78;;;12.40;99.90;;;;;;4971308;28;20046;-73
2023/03/30 06:37:49;;;;;;;7.10;2.75;;;12.40;99.90;;;;;;4971597;28;20043;-73
2023/03/30 06:40:16;;;;;;;11.43;3.17;;;12.30;99.90;;;;;;4971788;28;20065;-73
2023/03/30 06:42:45;;;;;;;8.48;2.92;;;12.40;99.90;;;;;;4947977;28;20035;-73
2023/03/30 06:45:12;;;;;;;11.32;3.03;;;12.40;99.90;;;;;;4971340;28;20051;-73
2023/03/30 06:47:38;;;;;;;7.35;3.20;;;12.40;99.90;;;;;;4971723;28;20445;-73
2023/03/30 06:50:04;;;;;;;10.73;2.75;;;12.40;99.90;;;;;;4971463;28;20084;-73
2023/03/30 06:52:34;;;;;;;11.82;3.15;;;12.40;99.90;;;;;;4959593;28;20122;-73
2023/03/30 06:54:59;;;;;;;9.50;2.90;;;12.40;99.90;;;;;;4971296;28;20050;-73
2023/03/30 06:57:25;;;;;;;12.18;3.55;;;12.40;99.90;;;;;;4971312;28;20046;-73
2023/03/30 06:59:51;;;;;;;10.00;3.03;;;12.50;99.90;;;;;;4971695;28;20042;-73
2023/03/30 07:02:16;;;;;;;9.43;3.13;;;12.50;99.90;;;;;;4971427;28;20502;-73
2023/03/30 07:04:45;;;;;;;11.93;3.47;;;12.50;99.90;;;;;;4955116;28;20077;-73
2023/03/30 07:07:11;;;;;;;10.90;3.38;;;12.50;99.90;;;;;;4961275;28;20046;-73
2023/03/30 07:09:39;;;;;;;9.32;3.35;;;12.50;99.90;;;;;;4974099;28;20066;-73
2023/03/30 07:12:05;;;;;;;13.98;4.03;;;12.60;99.90;;;;;;4974722;28;20122;-73
2023/03/30 07:14:30;;;;;;;12.95;3.83;;;12.60;99.90;;;;;;4974745;28;20043;-73
2023/03/30 07:16:56;;;;;;;9.93;3.40;;;12.60;99.90;;;;;;4974952;28;20097;-73
2023/03/30 07:19:22;;;;;;;11.40;3.55;;;12.70;99.90;;;;;;4943081;28;20129;-73
2023/03/30 07:21:47;;;;;;;14.23;3.10;;;12.70;99.90;;;;;;4967848;28;20113;-73
2023/03/30 07:24:13;;;;;;;9.35;3.30;;;12.70;99.90;;;;;;4958646;28;20051;-73
2023/03/30 07:26:38;;;;;;;11.23;3.95;;;12.70;99.90;;;;;;4974639;28;20046;-73
2023/03/30 07:29:05;;;;;;;12.82;3.13;;;12.70;99.90;;;;;;4974638;28;20054;-73
2023/03/30 07:31:31;;;;;;;11.95;3.55;;;12.70;99.90;;;;;;4974691;28;20078;-73
2023/03/30 07:33:56;;;;;;;13.45;3.90;;;12.60;99.90;;;;;;4968000;28;20078;-73
2023/03/30 07:36:22;;;;;;;16.25;3.47;;;12.50;99.90;;;;;;4974377;28;20049;-73
2023/03/30 07:38:48;;;;;;;13.50;3.42;;;12.50;99.90;;;;;;4974496;28;20077;-73
2023/03/30 07:41:15;;;;;;;20.67;3.55;;;12.40;99.90;;;;;;4974201;28;20046;-72
2023/03/30 07:43:41;;;;;;;12.32;3.60;;;12.40;99.90;;;;;;4962311;28;20059;-73
2023/03/30 07:46:08;;;;;;;13.32;3.65;;;12.40;99.90;;;;;;4974228;28;20047;-74
2023/03/30 07:48:34;;;;;;;13.70;3.50;;;12.30;99.90;;;;;;4974326;28;20046;-73
2023/03/30 07:51:02;;;;;;;15.23;3.72;;;12.20;99.90;;;;;;4974416;28;20444;-73
2023/03/30 07:53:28;;;;;;;16.70;3.38;;;12.20;99.90;;;;;;4959466;28;20059;-73
2023/03/30 07:55:54;;;;;;;12.55;4.30;;;12.20;99.90;;;;;;4974252;28;20047;-73
2023/03/30 07:58:19;;;;;;;17.92;3.90;;;12.10;99.90;;;;;;4974324;28;20117;-73
2023/03/30 08:00:46;;;;;;;14.63;3.65;;;12.10;99.90;;;;;;4974203;28;20190;-73
2023/03/30 08:03:12;;;;;;;13.38;3.63;;;12.10;99.90;;;;;;4973965;28;20050;-73
2023/03/30 08:05:37;;;;;;;11.80;3.70;;;12.10;99.90;;;;;;4974275;28;20050;-73
2023/03/30 08:08:03;;;;;;;14.38;3.60;;;12.10;99.90;;;;;;4969889;28;20042;-73
2023/03/30 08:10:29;;;;;;;13.00;3.90;;;12.10;99.90;;;;;;4973712;28;20054;-72
2023/03/30 08:12:54;;;;;;;15.70;3.97;;;12.10;99.90;;;;;;4973715;28;20042;-73
2023/03/30 08:15:20;;;;;;;18.27;4.72;;;12.10;99.90;;;;;;4973799;28;20070;-73
2023/03/30 08:17:45;;;;;;;16.80;4.50;;;12.10;99.90;;;;;;4957777;28;20069;-73
2023/03/30 08:20:11;;;;;;;17.23;4.47;;;11.90;99.90;;;;;;4961639;28;20726;-73
2023/03/30 08:22:37;;;;;;;14.52;4.35;;;11.80;99.90;;;;;;4964774;28;20031;-73
2023/03/30 08:25:04;;;;;;;18.13;4.53;;;11.60;99.90;;;;;;4973594;28;20403;-73
2023/03/30 08:27:30;;;;;;;19.55;5.30;;;11.50;99.90;;;;;;4957743;28;20398;-73
2023/03/30 08:29:55;;;;;;;19.25;5.18;;;11.30;99.90;;;;;;4973670;28;20121;-73
2023/03/30 08:32:22;;;;;;;18.33;5.05;;;11.20;99.90;;;;;;4973508;28;20241;-73
2023/03/30 08:34:47;;;;;;;17.95;4.80;;;11.20;99.90;;;;;;4953210;28;20053;-73
2023/03/30 08:37:13;;;;;;;17.83;5.45;;;11.20;99.90;;;;;;4957298;28;20046;-73
2023/03/30 08:39:39;;;;;;;14.68;4.80;;;11.40;99.90;;;;;;4951956;28;20535;-73
2023/03/30 08:42:32;;;;;;;18.77;5.20;;;11.50;99.90;;;;;;4973049;28;20498;-73
2023/03/30 08:45:04;;;;;;;18.10;4.72;;;11.80;99.90;;;;;;4973556;28;20434;-73
2023/03/30 08:47:36;;;;;;;22.42;6.22;;;11.80;99.90;;;;;;4957548;28;20485;-73
2023/03/30 08:50:16;;;;;;;18.13;4.97;;;11.90;99.90;;;;;;4963744;28;20101;-73
2023/03/30 08:52:42;;;;;;;15.27;4.35;;;12.00;99.90;;;;;;4973011;28;20349;-73
2023/03/30 08:55:33;;;;;;;14.02;4.28;;;12.20;99.90;;;;;;4974278;28;20047;-73
2023/03/30 08:58:08;;;;;;;21.92;4.38;;;12.80;99.90;;;;;;4973182;28;20050;-73
2023/03/30 09:00:55;;;;;;;14.10;3.90;;;13.50;99.90;;;;;;4948404;28;20435;-73
2023/03/30 09:03:34;;;;;;;14.40;4.07;;;13.70;99.90;;;;;;4972847;28;20042;-73
2023/03/30 09:06:08;;;;;;;11.18;3.67;;;13.60;99.90;;;;;;4967923;28;20051;-73
2023/03/30 09:08:35;;;;;;;14.43;3.83;;;13.40;99.90;;;;;;4968208;28;20042;-73
2023/03/30 09:11:06;;;;;;;14.00;3.65;;;13.20;99.90;;;;;;4972830;28;20478;-73
2023/03/30 09:13:36;;;;;;;16.52;4.10;;;13.00;99.90;;;;;;4972743;28;20340;-73
2023/03/30 09:16:08;;;;;;;15.20;3.80;;;12.90;99.90;;;;;;4943732;28;20049;-73
2023/03/30 09:18:36;;;;;;;16.33;3.28;;;12.80;99.90;;;;;;4956435;28;20512;-73
2023/03/30 09:21:04;;;;;;;15.55;3.70;;;12.70;99.90;;;;;;4972529;28;20078;-73
2023/03/30 09:23:32;;;;;;;13.25;3.47;;;12.70;99.90;;;;;;4970475;28;20161;-73
2023/03/30 09:26:13;;;;;;;17.48;4.20;;;12.60;99.90;;;;;;4965607;28;20042;-73
2023/03/30 09:29:03;;;;;;;17.05;3.97;;;12.50;99.90;;;;;;4972453;28;20039;-73
2023/03/30 09:31:40;;;;;;;14.23;3.47;;;12.60;99.90;;;;;;4971528;28;20048;-73
2023/03/30 09:34:35;;;;;;;11.23;2.92;;;12.70;99.90;;;;;;4964044;28;20055;-73
2023/03/30 09:37:17;;;;;;;12.35;3.00;;;12.80;99.90;;;;;;4959272;28;20516;-73
2023/03/30 09:39:44;;;;;;;12.50;3.60;;;12.90;99.90;;;;;;4972449;28;20126;-73
2023/03/30 09:42:33;;;;;;;15.77;3.97;;;13.00;99.90;;;;;;4971926;28;20035;-73
2023/03/30 09:45:14;;;;;;;13.48;3.80;;;13.50;99.90;;;;;;4972162;28;20047;-73
2023/03/30 09:47:41;;;;;;;13.63;3.20;;;14.20;99.90;;;;;;4956156;28;20129;-73
2023/03/30 09:50:11;;;;;;;12.15;2.97;;;14.20;99.90;;;;;;4969117;28;20082;-73
2023/03/30 09:52:39;;;;;;;11.75;3.13;;;14.00;99.90;;;;;;4962035;28;20132;-73
2023/03/30 09:55:17;;;;;;;13.25;3.38;;;13.90;99.90;;;;;;4971843;28;20043;-73
2023/03/30 09:57:42;;;;;;;11.93;2.97;;;13.70;99.90;;;;;;4972160;28;20125;-73
2023/03/30 10:00:26;;;;;;;9.65;2.78;;;13.60;99.90;;;;;;4956172;28;20121;-73
2023/03/30 10:02:57;;;;;;;12.13;2.92;;;13.40;99.90;;;;;;4971526;28;20062;-73
2023/03/30 10:05:23;;;;;;;13.10;3.38;;;13.30;99.90;;;;;;4963884;28;20531;-73
2023/03/30 10:07:55;;;;;;;11.75;2.63;;;13.30;99.90;;;;;;4955620;28;20043;-72
2023/03/30 10:10:32;;;;;;;10.95;2.25;;;13.40;99.90;;;;;;4972145;28;20129;-72
2023/03/30 10:13:11;;;;;;;10.68;3.10;;;13.50;99.90;;;;;;4971898;28;20477;-72
2023/03/30 10:15:39;;;;;;;11.73;2.72;;;13.60;99.90;;;;;;4955225;28;20053;-73
2023/03/30 10:18:18;;;;;;;12.43;3.30;;;13.70;99.90;;;;;;4959354;28;20039;-73
2023/03/30 10:20:53;;;;;;;10.00;2.55;;;13.80;99.90;;;;;;4971968;28;20053;-73
2023/03/30 10:23:21;;;;;;;12.10;2.40;;;14.20;99.90;;;;;;4971667;28;20042;-73
2023/03/30 10:25:50;;;;;;;11.80;2.88;;;14.30;99.90;;;;;;4971651;28;20039;-73
2023/03/30 10:28:25;;;;;;;8.27;2.42;;;14.30;99.90;;;;;;4969348;28;20105;-73
2023/03/30 10:30:56;;;;;;;13.73;2.65;;;14.60;99.90;;;;;;4950476;28;20043;-73
2023/03/30 10:34:25;;;;;;;10.63;3.00;;;14.90;99.90;;;;;;4976435;23;20025;-77
2023/03/30 10:37:42;;;;;;;10.45;2.83;;;15.10;99.90;;;;;;4851883;29;20237;-78
2023/03/30 10:44:07;;;;;;;11.40;2.58;;;15.20;99.90;;;;;;4875909;29;20550;-78
2023/03/30 10:47:55;;;;;;;9.35;2.45;;;15.30;99.90;;;;;;4891644;29;20056;-78
2023/03/30 10:51:17;;;;;;;7.82;1.67;;;15.10;99.90;;;;;;4850216;29;20438;-78
2023/03/30 11:04:43;;;;;;;10.38;2.58;;;15.50;99.90;;;;;;4900998;29;20044;-78
2023/03/30 11:12:16;;;;;;;;;;;;;;;;;;;;;
2023/03/30 11:15:28;;;;;;;;;;;;;;;;;;;;;
2023/03/30 11:18:40;;;;;;;11.00;2.53;;;15.20;99.90;;;;;;4937065;29;20051;-78
2023/03/30 11:21:44;;;;;;;11.25;3.08;;;14.80;99.90;;;;;;4938325;29;20051;-78
2023/03/30 11:32:29;;;;;;;11.30;2.50;;;14.70;99.90;;;;;;4905608;29;20094;-78
2023/03/30 11:36:17;;;;;;;;;;;;;;;;;;;;;
2023/03/30 11:43:14;;;;;;;;;;;;;;;;;;;;;
2023/03/30 11:46:29;;;;;;;;;;;;;;;;;;;;;
2023/03/30 11:50:00;;;;;;;14.60;4.13;;;16.40;99.90;;;;;;4934955;29;20051;-78
2023/03/30 11:53:00;;;;;;;11.43;2.85;;;16.00;99.90;;;;;;4931656;29;20047;-78
2023/03/30 12:00:00;;;;;;;;;;;;;;;;;;;;;
2023/03/30 12:03:20;;;;;;;11.30;2.58;;;16.10;99.90;;;;;;4794175;29;20127;-78
2023/03/30 12:06:22;;;;;;;13.50;2.90;;;16.60;99.90;;;;;;4835643;29;20060;-78
2023/03/30 12:09:03;;;;;;;14.95;3.05;;;16.80;99.90;;;;;;4918788;29;20414;-77
2023/03/30 12:12:37;;;;;;;;;;;;;;;;;;;;;
2023/03/30 12:15:58;;;;;;;12.70;3.47;;;16.90;99.90;;;;;;4880008;29;20053;-79
2023/03/30 12:19:14;;;;;;;13.18;2.92;;;17.30;99.90;;;;;;4812552;29;20042;-79
2023/03/30 12:22:17;;;;;;;15.15;2.88;;;17.30;99.90;;;;;;4791084;29;20066;-78
2023/03/30 12:25:33;;;;;;;13.88;2.80;;;17.00;99.90;;;;;;4912115;23;20062;-78
2023/03/30 12:28:23;;;;;;;14.05;3.05;;;16.50;99.90;;;;;;4935819;29;20056;-78
2023/03/30 12:31:19;;;;;;;13.90;3.10;;;15.80;99.90;;;;;;4904147;29;20123;-78
2023/03/30 12:34:18;;;;;;;12.23;2.95;;;15.50;99.90;;;;;;4940165;29;20058;-78
2023/03/30 12:36:59;;;;;;;11.05;2.85;;;15.40;99.90;;;;;;4908976;29;20048;-78
2023/03/30 12:39:43;;;;;;;14.07;2.95;;;15.50;99.90;;;;;;4955093;23;20199;-73
2023/03/30 12:42:33;;;;;;;13.43;2.97;;;16.00;99.90;;;;;;4954018;29;20043;-74
2023/03/30 12:45:22;;;;;;;11.80;3.22;;;16.40;99.90;;;;;;4954145;29;20047;-73
2023/03/30 12:48:21;;;;;;;18.63;3.63;;;17.10;99.90;;;;;;4945559;29;20053;-73
2023/03/30 12:51:11;;;;;;;17.67;3.70;;;17.90;99.90;;;;;;4919086;29;20043;-73
2023/03/30 12:54:04;;;;;;;12.00;3.17;;;18.10;99.90;;;;;;4934755;29;20048;-73
2023/03/30 12:56:54;;;;;;;16.17;3.25;;;18.20;99.90;;;;;;4950733;29;20079;-73
2023/03/30 12:59:41;;;;;;;13.82;2.55;;;18.60;99.90;;;;;;4938564;29;20050;-73
2023/03/30 13:02:29;;;;;;;13.10;3.53;;;18.80;99.90;;;;;;4923460;29;20044;-73
2023/03/30 13:04:56;;;;;;;15.02;3.35;;;18.70;99.90;;;;;;4915696;29;20079;-73
2023/03/30 13:07:26;;;;;;;14.63;3.85;;;18.90;99.20;;;;;;4930500;29;20050;-73
2023/03/30 13:10:34;;;;;;;14.27;3.50;;;19.20;99.90;;;;;;4916761;29;20502;-73
2023/03/30 13:13:02;;;;;;;15.85;2.95;;;19.10;95.10;;;;;;4933644;29;20042;-73
2023/03/30 13:15:38;;;;;;;11.93;3.30;;;18.80;93.90;;;;;;4926218;29;20055;-73
2023/03/30 13:18:29;;;;;;;16.92;3.63;;;17.80;98.20;;;;;;4915323;29;20043;-73
2023/03/30 13:20:54;;;;;;;15.65;3.33;;;16.80;99.90;;;;;;4915000;29;20044;-73
2023/03/30 13:23:20;;;;;;;15.75;4.20;;;16.10;99.90;;;;;;4915599;29;20048;-73
2023/03/30 13:26:02;;;;;;;17.45;4.13;;;15.60;99.90;;;;;;4899730;29;20533;-73
2023/03/30 13:28:44;;;;;;;15.30;3.67;;;15.60;99.90;;;;;;4930868;29;20051;-73
2023/03/30 13:31:34;;;;;;;12.93;3.65;;;15.80;99.90;;;;;;4934172;29;20143;-73
2023/03/30 13:34:14;;;;;;;13.75;3.45;;;15.80;99.90;;;;;;4933911;29;20395;-73
2023/03/30 13:37:06;;;;;;;15.98;3.25;;;16.10;99.90;;;;;;4933374;29;20039;-73
2023/03/30 13:40:26;;;;;;;18.65;4.00;;;16.10;99.90;;;;;;4924880;29;20040;-73
2023/03/30 13:43:25;;;;;;;16.83;4.22;;;15.80;99.90;;;;;;4823913;29;20053;-73
2023/03/30 13:46:17;;;;;;;18.08;4.35;;;16.00;99.90;;;;;;4914741;29;20033;-73
2023/03/30 13:49:09;;;;;;;11.57;3.58;;;17.10;99.90;;;;;;4914827;29;20044;-73
2023/03/30 13:51:37;;;;;;;18.27;3.63;;;17.20;99.90;;;;;;4918615;29;20036;-74
2023/03/30 13:54:09;;;;;;;16.60;3.83;;;17.00;99.90;;;;;;4910112;29;20035;-74
2023/03/30 13:56:38;;;;;;;15.52;3.50;;;17.00;99.90;;;;;;4933108;29;20085;-73
2023/03/30 13:59:09;;;;;;;12.07;3.17;;;17.00;99.90;;;;;;4928790;29;20380;-73
2023/03/30 14:01:36;;;;;;;19.02;3.80;;;16.80;99.90;;;;;;4933363;29;20040;-73
2023/03/30 14:04:03;;;;;;;12.80;3.35;;;16.80;99.90;;;;;;4933608;29;20139;-73
2023/03/30 14:06:31;;;;;;;17.83;3.25;;;16.50;99.90;;;;;;4933174;29;20047;-73